createdAt,value
2022-10-11T00:03:00.834Z,9.10
2022-10-11T00:07:03.702Z,9.10
2022-10-11T00:11:08.988Z,9.00
2022-10-11T00:15:14.853Z,8.90
2022-10-11T00:19:17.925Z,8.90
2022-10-11T00:23:20.890Z,8.90
2022-10-11T00:27:25.344Z,8.80
2022-10-11T00:31:33.288Z,8.80
2022-10-11T00:35:41.410Z,8.80
2022-10-11T00:39:44.372Z,8.80
2022-10-11T00:43:48.898Z,8.80
2022-10-11T00:47:51.713Z,8.70
2022-10-11T00:51:57.979Z,8.70
2022-10-11T00:56:05.157Z,8.60
2022-10-11T01:00:12.601Z,8.60
2022-10-11T01:04:15.834Z,8.50
2022-10-11T01:08:19.529Z,8.40
2022-10-11T01:12:25.606Z,8.40
2022-10-11T01:16:34.591Z,8.30
2022-10-11T01:20:52.489Z,8.30
2022-10-11T01:25:14.260Z,8.20
2022-10-11T01:29:26.087Z,8.20
2022-10-11T01:33:37.305Z,8.20
2022-10-11T01:37:44.999Z,8.30
2022-10-11T01:41:51.405Z,8.30
2022-10-11T01:45:57.211Z,8.40
2022-10-11T01:50:02.869Z,8.50
2022-10-11T01:54:39.414Z,8.50
2022-10-11T01:59:13.554Z,8.60
2022-10-11T02:03:29.925Z,8.60
2022-10-11T02:07:41.799Z,8.50
2022-10-11T02:11:44.697Z,8.60
2022-10-11T02:15:50.670Z,8.70
2022-10-11T02:19:57.365Z,8.70
2022-10-11T02:24:05.296Z,8.70
2022-10-11T02:28:12.139Z,8.70
2022-10-11T02:32:16.694Z,8.70
2022-10-11T02:36:25.078Z,8.70
2022-10-11T02:40:33.215Z,8.80
2022-10-11T02:44:41.313Z,8.80
2022-10-11T02:48:44.146Z,8.80
2022-10-11T02:52:46.990Z,8.90
2022-10-11T02:56:51.207Z,8.90
2022-10-11T03:00:54.069Z,8.90
2022-10-11T03:04:57.615Z,8.90
2022-10-11T03:09:00.438Z,8.90
2022-10-11T03:13:04.950Z,8.90
2022-10-11T03:17:31.020Z,9.00
2022-10-11T03:21:30.631Z,9.00
2022-10-11T03:25:33.693Z,9.00
2022-10-11T03:29:37.863Z,9.10
2022-10-11T03:33:40.813Z,9.10
2022-10-11T03:37:43.609Z,9.20
2022-10-11T03:41:46.579Z,9.20
2022-10-11T03:45:50.758Z,9.30
2022-10-11T03:49:53.604Z,9.30
2022-10-11T03:53:56.416Z,9.30
2022-10-11T03:57:59.253Z,9.20
2022-10-11T04:02:04.610Z,9.30
2022-10-11T04:06:08.710Z,9.20
2022-10-11T04:10:11.703Z,9.30
2022-10-11T04:14:14.533Z,9.20
2022-10-11T04:18:18.722Z,9.30
2022-10-11T04:22:21.519Z,9.30
2022-10-11T04:26:24.481Z,9.30
2022-10-11T04:30:27.312Z,9.30
2022-10-11T04:34:31.559Z,9.30
2022-10-11T04:38:34.502Z,9.30
2022-10-11T04:42:37.469Z,9.20
2022-10-11T04:46:40.337Z,9.30
2022-10-11T04:50:46.460Z,9.20
2022-10-11T04:54:52.373Z,9.30
2022-10-11T04:58:55.169Z,9.30
2022-10-11T05:02:58.023Z,9.20
2022-10-11T05:07:02.270Z,9.20
2022-10-11T05:11:07.407Z,9.20
2022-10-11T05:15:11.195Z,9.20
2022-10-11T05:19:14.012Z,9.20
2022-10-11T05:23:18.172Z,9.20
2022-10-11T05:27:21.146Z,9.20
2022-10-11T05:31:24.229Z,9.10
2022-10-11T05:35:27.132Z,9.10
2022-10-11T05:39:32.265Z,9.10
2022-10-11T05:43:35.203Z,9.10
2022-10-11T05:47:38.143Z,9.10
2022-10-11T05:51:40.960Z,9.00
2022-10-11T05:55:45.550Z,9.10
2022-10-11T05:59:48.374Z,9.10
2022-10-11T06:03:51.316Z,9.10
2022-10-11T06:07:54.276Z,9.10
2022-10-11T06:11:58.699Z,9.10
2022-10-11T06:16:04.364Z,9.10
2022-10-11T06:20:08.480Z,9.20
2022-10-11T06:24:12.223Z,9.10
2022-10-11T06:28:16.484Z,9.10
2022-10-11T06:32:19.329Z,9.20
2022-10-11T06:36:22.342Z,9.20
2022-10-11T06:40:25.544Z,9.20
2022-10-11T06:44:30.245Z,9.10
2022-10-11T06:48:33.206Z,9.20
2022-10-11T06:52:36.069Z,9.20
2022-10-11T06:56:39.014Z,9.30
2022-10-11T07:00:43.317Z,9.30
2022-10-11T07:04:46.215Z,9.40
2022-10-11T07:08:49.974Z,9.40
2022-10-11T07:12:52.838Z,9.50
2022-10-11T07:16:57.273Z,9.40
2022-10-11T07:21:03.302Z,9.50
2022-10-11T07:25:07.130Z,9.50
2022-10-11T07:29:11.747Z,9.50
2022-10-11T07:33:15.923Z,9.50
2022-10-11T07:37:18.743Z,9.60
2022-10-11T07:41:21.900Z,9.70
2022-10-11T07:45:25.375Z,9.70
2022-10-11T07:49:29.591Z,9.70
2022-10-11T07:53:32.445Z,9.70
2022-10-11T07:57:35.290Z,9.80
2022-10-11T08:01:38.175Z,9.80
2022-10-11T08:05:42.401Z,9.80
2022-10-11T08:09:45.198Z,9.80
2022-10-11T08:14:08.445Z,9.80
2022-10-11T08:18:11.226Z,9.80
2022-10-11T08:22:15.513Z,9.90
2022-10-11T08:26:18.393Z,10.00
2022-10-11T08:30:21.320Z,10.10
2022-10-11T08:34:24.149Z,10.20
2022-10-11T08:38:28.297Z,10.30
2022-10-11T08:42:36.481Z,10.50
2022-10-11T08:46:42.998Z,10.50
2022-10-11T08:50:48.695Z,10.50
2022-10-11T08:54:56.869Z,10.50
2022-10-11T08:59:05.547Z,10.60
2022-10-11T09:03:22.689Z,10.70
2022-10-11T09:07:38.452Z,10.90
2022-10-11T09:11:53.544Z,11.30
2022-10-11T09:16:05.258Z,11.80
2022-10-11T09:20:35.749Z,12.30
2022-10-11T09:24:53.529Z,12.30
2022-10-11T09:29:02.865Z,12.20
2022-10-11T09:33:14.504Z,12.40
2022-10-11T09:37:25.483Z,12.60
2022-10-11T09:41:37.421Z,13.10
2022-10-11T09:45:49.140Z,13.90
2022-10-11T09:49:57.587Z,14.10
2022-10-11T09:54:02.868Z,14.00
2022-10-11T09:58:09.499Z,14.20
2022-10-11T10:02:21.219Z,14.30
2022-10-11T10:06:27.062Z,14.40
2022-10-11T10:10:35.081Z,14.40
2022-10-11T10:14:37.957Z,14.40
2022-10-11T10:18:49.214Z,14.20
2022-10-11T10:22:52.898Z,14.40
2022-10-11T10:27:18.054Z,14.40
2022-10-11T10:31:23.801Z,14.40
2022-10-11T10:35:32.397Z,14.40
2022-10-11T10:39:41.734Z,14.40
2022-10-11T10:43:52.589Z,14.20
2022-10-11T10:48:08.868Z,14.20
2022-10-11T10:52:42.811Z,14.40
2022-10-11T10:56:52.963Z,14.70
2022-10-11T11:01:02.916Z,14.70
2022-10-11T11:05:16.277Z,14.50
2022-10-11T11:09:39.090Z,14.70
2022-10-11T11:13:48.497Z,14.80
2022-10-11T11:18:05.173Z,14.70
2022-10-11T11:22:15.714Z,14.60
2022-10-11T11:26:26.311Z,14.70
2022-10-11T11:30:37.264Z,14.70
2022-10-11T11:34:44.402Z,14.80
2022-10-11T11:38:52.248Z,14.70
2022-10-11T11:42:58.925Z,14.80
2022-10-11T11:47:04.928Z,15.00
2022-10-11T11:51:13.020Z,15.20
2022-10-11T11:55:22.170Z,15.20
2022-10-11T11:59:32.595Z,15.30
2022-10-11T12:03:41.850Z,15.40
2022-10-11T12:07:55.086Z,15.50
2022-10-11T12:12:00.207Z,15.60
2022-10-11T12:16:12.446Z,15.50
2022-10-11T12:20:22.062Z,15.40
2022-10-11T12:24:25.761Z,15.40
2022-10-11T12:29:03.626Z,15.30
2022-10-11T12:33:15.950Z,15.20
2022-10-11T12:37:51.281Z,15.50
2022-10-11T12:42:06.904Z,15.70
2022-10-11T12:46:40.301Z,15.60
2022-10-11T12:51:02.911Z,15.40
2022-10-11T12:55:30.424Z,15.30
2022-10-11T12:59:33.801Z,15.00
2022-10-11T13:03:40.186Z,14.70
2022-10-11T13:07:45.109Z,14.60
2022-10-11T13:11:52.001Z,14.80
2022-10-11T13:15:57.753Z,14.90
2022-10-11T13:20:02.414Z,14.90
2022-10-11T13:24:13.443Z,14.80
2022-10-11T13:28:17.126Z,14.90
2022-10-11T13:32:23.726Z,14.60
2022-10-11T13:36:28.291Z,14.30
2022-10-11T13:40:34.623Z,14.20
2022-10-11T13:44:38.764Z,14.30
2022-10-11T13:48:41.799Z,14.20
2022-10-11T13:52:59.892Z,14.30
2022-10-11T13:57:04.425Z,14.30
2022-10-11T14:01:18.054Z,14.20
2022-10-11T14:05:29.312Z,14.30
2022-10-11T14:09:34.788Z,14.40
2022-10-11T14:13:41.376Z,14.50
2022-10-11T14:17:47.111Z,14.40
2022-10-11T14:21:54.869Z,14.40
2022-10-11T14:25:57.704Z,14.40
2022-10-11T14:30:24.510Z,14.40
2022-10-11T14:34:31.911Z,14.30
2022-10-11T14:38:34.702Z,14.40
2022-10-11T14:42:37.543Z,14.40
2022-10-11T14:46:42.637Z,14.30
2022-10-11T14:50:50.111Z,14.40
2022-10-11T14:54:52.934Z,14.40
2022-10-11T14:58:58.670Z,14.20
2022-10-11T15:03:03.719Z,14.70
2022-10-11T15:07:06.670Z,15.20
2022-10-11T15:11:11.632Z,15.00
2022-10-11T15:15:19.733Z,14.80
2022-10-11T15:19:25.665Z,14.80
2022-10-11T15:23:28.579Z,14.60
2022-10-11T15:27:31.445Z,14.50
2022-10-11T15:31:34.360Z,14.40
2022-10-11T15:35:38.750Z,14.30
2022-10-11T15:39:44.621Z,14.30
2022-10-11T15:43:49.241Z,14.50
2022-10-11T15:47:52.714Z,14.80
2022-10-11T15:51:56.967Z,14.50
2022-10-11T15:56:03.261Z,14.10
2022-10-11T16:00:07.261Z,13.90
2022-10-11T16:04:14.643Z,13.70
2022-10-11T16:08:18.781Z,13.40
2022-10-11T16:12:21.733Z,13.20
2022-10-11T16:16:24.617Z,13.00
2022-10-11T16:20:27.451Z,12.80
2022-10-11T16:24:31.679Z,12.70
2022-10-11T16:28:35.584Z,12.50
2022-10-11T16:32:39.235Z,12.30
2022-10-11T16:36:42.786Z,12.10
2022-10-11T16:40:48.813Z,11.90
2022-10-11T16:44:52.035Z,11.70
2022-10-11T16:48:56.219Z,11.60
2022-10-11T16:52:59.239Z,11.50
2022-10-11T16:57:03.549Z,11.40
2022-10-11T17:01:10.548Z,11.20
2022-10-11T17:05:13.474Z,11.00
2022-10-11T17:13:47.978Z,10.90
2022-10-11T17:17:50.783Z,10.70
2022-10-11T17:21:53.649Z,10.60
2022-10-11T17:25:56.790Z,10.50
2022-10-11T17:30:00.979Z,10.40
2022-10-11T17:34:03.821Z,10.30
2022-10-11T17:38:06.709Z,10.20
2022-10-11T17:42:09.598Z,10.20
2022-10-11T17:46:15.796Z,10.10
2022-10-11T17:50:18.950Z,10.00
2022-10-11T17:54:21.830Z,9.90
2022-10-11T17:58:26.733Z,9.80
2022-10-11T18:02:32.093Z,9.80
2022-10-11T18:06:40.447Z,9.70
2022-10-11T18:10:47.451Z,9.60
2022-10-11T18:14:51.242Z,9.50
2022-10-11T18:18:57.550Z,9.40
2022-10-11T18:23:00.784Z,9.40
2022-10-11T18:27:03.769Z,9.30
2022-10-11T18:31:12.559Z,9.20
2022-10-11T18:35:17.801Z,9.20
2022-10-11T18:39:21.784Z,9.20
2022-10-11T18:43:24.610Z,9.10
2022-10-11T18:47:27.614Z,9.00
2022-10-11T18:51:33.835Z,8.90
2022-10-11T18:55:37.321Z,8.90
2022-10-11T18:59:40.205Z,8.80
2022-10-11T19:03:45.045Z,8.70
2022-10-11T19:07:50.695Z,8.60
2022-10-11T19:11:56.226Z,8.50
2022-10-11T19:16:06.026Z,8.50
2022-10-11T19:20:12.721Z,8.40
2022-10-11T19:24:17.185Z,8.40
2022-10-11T19:28:20.114Z,8.40
2022-10-11T19:32:22.946Z,8.20
2022-10-11T19:36:26.077Z,8.30
2022-10-11T19:40:33.082Z,8.10
2022-10-11T19:44:39.820Z,8.00
2022-10-11T19:48:44.588Z,7.90
2022-10-11T19:52:47.431Z,7.90
2022-10-11T19:56:51.745Z,7.70
2022-10-11T20:01:01.358Z,7.70
2022-10-11T20:05:04.610Z,7.70
2022-10-11T20:09:28.425Z,7.70
2022-10-11T20:13:35.051Z,7.60
2022-10-11T20:17:50.275Z,7.60
2022-10-11T20:21:53.181Z,7.50
2022-10-11T20:26:00.470Z,7.50
2022-10-11T20:30:05.449Z,7.40
2022-10-11T20:34:08.574Z,7.40
2022-10-11T20:38:11.393Z,7.30
2022-10-11T20:42:15.325Z,7.30
2022-10-11T20:46:21.046Z,7.30
2022-10-11T20:50:23.891Z,7.20
2022-10-11T20:54:28.867Z,7.20
2022-10-11T20:58:32.165Z,7.10
2022-10-11T21:02:36.801Z,7.10
2022-10-11T21:06:40.636Z,7.10
2022-10-11T21:10:52.437Z,6.90
2022-10-11T21:14:55.336Z,6.90
2022-10-11T21:19:01.793Z,6.90
2022-10-11T21:23:04.631Z,6.80
2022-10-11T21:27:07.621Z,6.80
2022-10-11T21:31:12.497Z,6.80
2022-10-11T21:35:16.823Z,6.70
2022-10-11T21:39:19.739Z,6.70
2022-10-11T21:43:22.555Z,6.60
2022-10-11T21:47:25.632Z,6.60
2022-10-11T21:51:31.974Z,6.50
2022-10-11T21:55:34.769Z,6.50
2022-10-11T21:59:37.619Z,6.40
2022-10-11T22:03:40.482Z,6.40
2022-10-11T22:07:45.393Z,6.40
2022-10-11T22:11:48.229Z,6.30
2022-10-11T22:15:51.051Z,6.20
2022-10-11T22:19:53.841Z,6.30
2022-10-11T22:23:58.030Z,6.20
2022-10-11T22:28:00.863Z,6.10
2022-10-11T22:32:03.699Z,6.10
2022-10-11T22:36:08.914Z,6.10
2022-10-11T22:40:13.630Z,6.10
2022-10-11T22:44:16.663Z,6.10
2022-10-11T22:48:19.470Z,6.00
2022-10-11T22:52:22.283Z,6.00
2022-10-11T22:56:26.501Z,5.90
2022-10-11T23:00:29.477Z,5.90
2022-10-11T23:04:32.286Z,5.80
2022-10-11T23:08:35.213Z,5.80
2022-10-11T23:12:39.406Z,5.80
2022-10-11T23:16:42.208Z,5.80
2022-10-11T23:20:45.231Z,5.80
2022-10-11T23:24:48.111Z,5.70
2022-10-11T23:28:58.188Z,5.80
2022-10-11T23:33:03.246Z,5.80
2022-10-11T23:37:06.599Z,5.80
2022-10-11T23:41:09.475Z,5.80
2022-10-11T23:45:13.627Z,5.80
2022-10-11T23:49:16.894Z,5.80
2022-10-11T23:53:19.826Z,5.70
2022-10-11T23:57:22.666Z,5.70
